Time;durP1;ratioP1;P1;durP2;ratioP2;P2;SDS_P1;SDS_P2;PMS_P1;PMS_P2;Temp;Humidity;BMP_temperature;BMP_pressure;BME280_temperature;BME280_humidity;BME280_pressure;Samples;Min_cycle;Max_cycle;Signal;HPM_P1;HPM_P2
2023/04/25 00:01:41;;;;;;;;;;;;;;;20.04;40.27;100937.06;5132257;27;19975;-66
2023/04/25 00:04:06;;;;;;;;;;;;;;;20.02;40.45;100939.13;5131893;27;19911;-66
2023/04/25 00:06:32;;;;;;;;;;;;;;;20.01;40.35;100948.22;5134536;27;19918;-67
2023/04/25 00:08:57;;;;;;;;;;;;;;;19.98;40.61;100941.31;5134178;27;19955;-67
2023/04/25 00:11:22;;;;;;;;;;;;;;;19.97;40.68;100947.75;5134174;27;19925;-66
2023/04/25 00:13:49;;;;;;;;;;;;;;;19.97;40.37;100952.28;5132470;27;20002;-66
2023/04/25 00:16:15;;;;;;;;;;;;;;;19.96;40.64;100947.88;5135125;27;19919;-67
2023/04/25 00:18:41;;;;;;;;;;;;;;;19.94;40.44;100952.63;5114103;27;19922;-67
2023/04/25 00:21:06;;;;;;;;;;;;;;;19.93;40.46;100950.97;5140217;27;19912;-66
2023/04/25 00:23:31;;;;;;;;;;;;;;;19.92;40.74;100946.56;5134635;27;19938;-66
2023/04/25 00:25:56;;;;;;;;;;;;;;;19.91;40.66;100951.13;5136931;27;19919;-66
2023/04/25 00:28:22;;;;;;;;;;;;;;;19.89;40.52;100958.56;5133968;27;19920;-66
2023/04/25 00:30:47;;;;;;;;;;;;;;;19.87;40.48;100965.97;5135043;27;19912;-67
2023/04/25 00:33:12;;;;;;;;;;;;;;;19.88;40.79;100964.09;5133749;27;19954;-67
2023/04/25 00:35:38;;;;;;;;;;;;;;;19.86;40.61;100955.34;5132061;27;19978;-66
2023/04/25 00:38:03;;;;;;;;;;;;;;;19.86;40.56;100963.47;5131831;27;19972;-67
2023/04/25 00:40:28;;;;;;;;;;;;;;;19.84;40.75;100971.75;5131296;27;19916;-66
2023/04/25 00:42:53;;;;;;;;;;;;;;;19.84;41.01;100982.53;5136243;27;19941;-67
2023/04/25 00:45:19;;;;;;;;;;;;;;;19.82;40.69;100978.31;5131823;27;19941;-67
2023/04/25 00:47:45;;;;;;;;;;;;;;;19.81;40.75;100979.31;5135785;27;19990;-67
2023/04/25 00:50:10;;;;;;;;;;;;;;;19.79;40.67;100976.78;5135338;27;19915;-67
2023/04/25 00:52:36;;;;;;;;;;;;;;;19.79;40.60;100970.53;5134796;27;19911;-67
2023/04/25 00:55:01;;;;;;;;;;;;;;;19.78;40.72;100967.00;5117988;27;19933;-67
2023/04/25 00:57:27;;;;;;;;;;;;;;;19.77;40.74;100961.81;5126115;27;19912;-67
2023/04/25 00:59:52;;;;;;;;;;;;;;;19.77;40.81;100961.81;5115315;28;19915;-67
2023/04/25 01:02:17;;;;;;;;;;;;;;;19.74;40.69;100968.38;5112754;28;19916;-67
2023/04/25 01:04:42;;;;;;;;;;;;;;;19.72;40.68;100971.25;5131665;27;19920;-67
2023/04/25 01:07:08;;;;;;;;;;;;;;;19.71;40.68;100968.75;5133903;27;19923;-67
2023/04/25 01:09:33;;;;;;;;;;;;;;;19.70;40.84;100973.25;5135374;27;20708;-67
2023/04/25 01:11:58;;;;;;;;;;;;;;;19.69;40.68;100968.06;5111566;28;19936;-67
2023/04/25 01:14:23;;;;;;;;;;;;;;;19.67;40.66;100968.25;5135820;27;19920;-67
2023/04/25 01:16:48;;;;;;;;;;;;;;;19.67;40.70;100970.09;5135077;27;19912;-67
2023/04/25 01:19:15;;;;;;;;;;;;;;;19.65;40.85;100964.84;5132152;27;20046;-67
2023/04/25 01:21:40;;;;;;;;;;;;;;;19.64;40.87;100965.03;5135957;27;19979;-67
2023/04/25 01:24:05;;;;;;;;;;;;;;;19.64;40.80;100965.88;5104766;28;19912;-67
2023/04/25 01:26:30;;;;;;;;;;;;;;;19.62;40.83;100967.03;5118998;27;19911;-67
2023/04/25 01:28:56;;;;;;;;;;;;;;;19.62;40.72;100969.75;5122322;27;19916;-67
2023/04/25 01:31:21;;;;;;;;;;;;;;;19.60;40.68;100966.38;5117028;28;19911;-67
2023/04/25 01:33:47;;;;;;;;;;;;;;;19.60;40.76;100977.16;5131914;27;20770;-67
2023/04/25 01:36:12;;;;;;;;;;;;;;;19.58;40.74;100982.72;5130966;27;19918;-67
2023/04/25 01:38:37;;;;;;;;;;;;;;;19.58;40.71;100984.56;5111637;28;19912;-67
2023/04/25 01:41:03;;;;;;;;;;;;;;;19.57;40.78;100985.56;5130624;27;19919;-67
2023/04/25 01:43:28;;;;;;;;;;;;;;;19.56;40.87;100986.59;5135700;27;19922;-67
2023/04/25 01:45:53;;;;;;;;;;;;;;;19.55;40.79;100984.91;5128657;27;19916;-67
2023/04/25 01:48:18;;;;;;;;;;;;;;;19.54;41.02;100994.00;5140545;27;19912;-67
2023/04/25 01:50:44;;;;;;;;;;;;;;;19.52;40.87;100994.19;5133146;27;19912;-67
2023/04/25 01:53:10;;;;;;;;;;;;;;;19.51;40.87;100997.91;5131924;27;20517;-67
2023/04/25 01:55:36;;;;;;;;;;;;;;;19.51;40.94;100994.38;5115972;27;19920;-67
2023/04/25 01:58:02;;;;;;;;;;;;;;;19.51;41.08;100991.66;5130894;27;20007;-67
2023/04/25 02:00:27;;;;;;;;;;;;;;;19.49;40.86;101000.75;5111383;27;19912;-67
2023/04/25 02:02:53;;;;;;;;;;;;;;;19.49;40.92;100995.34;5128850;27;20010;-67
2023/04/25 02:05:18;;;;;;;;;;;;;;;19.47;40.89;101005.47;5130688;27;19912;-67
2023/04/25 02:07:44;;;;;;;;;;;;;;;19.46;40.97;101002.97;5129447;27;19919;-67
2023/04/25 02:10:09;;;;;;;;;;;;;;;19.46;40.88;101011.06;5116044;27;19916;-67
2023/04/25 02:12:35;;;;;;;;;;;;;;;19.45;40.84;101014.75;5128622;28;20371;-67
2023/04/25 02:15:00;;;;;;;;;;;;;;;19.44;40.93;101022.00;5136071;27;19962;-67
2023/04/25 02:17:26;;;;;;;;;;;;;;;19.44;41.25;101021.16;5134222;27;19912;-67
2023/04/25 02:19:51;;;;;;;;;;;;;;;19.44;40.89;101026.53;5129405;27;19919;-67
2023/04/25 02:22:16;;;;;;;;;;;;;;;19.43;40.84;101024.88;5134231;27;19916;-66
2023/04/25 02:24:41;;;;;;;;;;;;;;;19.43;40.83;101031.09;5128171;27;19911;-66
2023/04/25 02:27:07;;;;;;;;;;;;;;;19.43;40.91;101030.25;5122921;28;19924;-66
2023/04/25 02:29:32;;;;;;;;;;;;;;;19.42;41.17;101018.63;5130110;28;19993;-66
2023/04/25 02:31:57;;;;;;;;;;;;;;;19.42;40.94;101018.63;5131594;28;19922;-66
2023/04/25 02:34:23;;;;;;;;;;;;;;;19.41;40.77;101016.97;5129020;28;19912;-66
2023/04/25 02:36:49;;;;;;;;;;;;;;;19.42;41.05;101021.34;5130872;28;19908;-66
2023/04/25 02:39:14;;;;;;;;;;;;;;;19.41;40.90;101025.03;5129746;28;20570;-67
2023/04/25 02:41:39;;;;;;;;;;;;;;;19.42;40.86;101023.19;5132739;28;19927;-67
2023/04/25 02:44:04;;;;;;;;;;;;;;;19.42;40.84;101023.19;5135623;28;19973;-67
2023/04/25 02:46:30;;;;;;;;;;;;;;;19.42;40.78;101029.41;5129453;28;19977;-67
2023/04/25 02:48:55;;;;;;;;;;;;;;;19.42;41.03;101037.50;5136125;28;19919;-67
2023/04/25 02:51:20;;;;;;;;;;;;;;;19.42;40.69;101028.59;5111754;28;19916;-67
2023/04/25 02:53:45;;;;;;;;;;;;;;;19.43;40.91;101035.66;5129056;28;19916;-67
2023/04/25 02:56:10;;;;;;;;;;;;;;;19.43;40.98;101030.25;5131754;28;19967;-67
2023/04/25 02:58:36;;;;;;;;;;;;;;;19.44;40.59;101023.84;5132505;28;19919;-67
2023/04/25 03:01:01;;;;;;;;;;;;;;;19.44;40.72;101030.06;5130035;28;19919;-67
2023/04/25 03:03:26;;;;;;;;;;;;;;;19.44;40.93;101035.47;5129323;28;19915;-67
2023/04/25 03:05:51;;;;;;;;;;;;;;;19.44;40.90;101043.56;5130845;28;20383;-67
2023/04/25 03:08:17;;;;;;;;;;;;;;;19.44;40.68;101031.94;5129271;28;20268;-67
2023/04/25 03:10:42;;;;;;;;;;;;;;;19.45;40.88;101045.28;5135470;28;19930;-67
2023/04/25 03:13:07;;;;;;;;;;;;;;;19.45;40.55;101039.88;5129724;28;20703;-67
2023/04/25 03:15:32;;;;;;;;;;;;;;;19.46;40.80;101044.25;5119174;27;19974;-67
2023/04/25 03:17:58;;;;;;;;;;;;;;;19.46;40.80;101041.56;5136178;27;19915;-67
2023/04/25 03:20:23;;;;;;;;;;;;;;;19.47;40.74;101039.69;5132511;27;19919;-67
2023/04/25 03:22:48;;;;;;;;;;;;;;;19.49;40.42;101051.13;5136549;27;19927;-67
2023/04/25 03:25:13;;;;;;;;;;;;;;;19.48;40.53;101050.31;5132938;27;19922;-67
2023/04/25 03:27:38;;;;;;;;;;;;;;;19.51;40.73;101051.00;5134449;27;19919;-67
2023/04/25 03:30:04;;;;;;;;;;;;;;;19.51;40.53;101048.28;5134875;27;19979;-67
2023/04/25 03:32:29;;;;;;;;;;;;;;;19.52;40.63;101048.13;5136977;27;19932;-67
2023/04/25 03:34:55;;;;;;;;;;;;;;;19.53;40.47;101048.94;5132928;27;20341;-67
2023/04/25 03:37:20;;;;;;;;;;;;;;;19.54;40.60;101053.31;5118563;27;19987;-67
2023/04/25 03:39:45;;;;;;;;;;;;;;;19.54;40.59;101047.94;5134967;27;19964;-67
2023/04/25 03:42:10;;;;;;;;;;;;;;;19.55;40.51;101058.56;5136687;27;19974;-67
2023/04/25 03:44:36;;;;;;;;;;;;;;;19.57;40.27;101055.69;5138237;27;19940;-67
2023/04/25 03:47:01;;;;;;;;;;;;;;;19.57;40.53;101053.84;5132976;27;19915;-67
2023/04/25 03:49:26;;;;;;;;;;;;;;;19.59;40.35;101056.38;5134838;27;19963;-67
2023/04/25 03:51:51;;;;;;;;;;;;;;;19.60;40.44;101049.97;5131790;27;19922;-67
2023/04/25 03:54:16;;;;;;;;;;;;;;;19.60;40.50;101056.22;5132711;27;20369;-67
2023/04/25 03:56:41;;;;;;;;;;;;;;;19.62;40.16;101064.16;5134844;27;19912;-67
2023/04/25 03:59:07;;;;;;;;;;;;;;;19.62;40.33;101064.97;5135082;27;19920;-67
2023/04/25 04:01:32;;;;;;;;;;;;;;;19.64;40.32;101072.94;5130311;27;19928;-67
2023/04/25 04:03:58;;;;;;;;;;;;;;;19.65;39.91;101078.16;5132637;27;19919;-67
2023/04/25 04:06:23;;;;;;;;;;;;;;;19.66;40.15;101078.97;5118124;27;19919;-67
2023/04/25 04:08:48;;;;;;;;;;;;;;;19.67;39.90;101078.00;5132987;27;19912;-67
2023/04/25 04:11:13;;;;;;;;;;;;;;;19.68;39.89;101082.38;5140217;27;19916;-67
2023/04/25 04:13:38;;;;;;;;;;;;;;;19.68;40.05;101077.81;5133736;27;19968;-67
2023/04/25 04:16:04;;;;;;;;;;;;;;;19.70;39.73;101080.34;5135725;27;19912;-68
2023/04/25 04:18:33;;;;;;;;;;;;;;;19.70;40.01;101080.34;5132646;27;20393;-67
2023/04/25 04:20:58;;;;;;;;;;;;;;;19.71;40.05;101090.13;5131725;27;19951;-67
2023/04/25 04:23:23;;;;;;;;;;;;;;;19.72;40.03;101086.41;5131533;27;19920;-68
2023/04/25 04:25:48;;;;;;;;;;;;;;;19.73;39.90;101090.78;5132130;27;19939;-68
2023/04/25 04:28:13;;;;;;;;;;;;;;;19.73;39.97;101088.09;5132365;27;19923;-68
2023/04/25 04:30:39;;;;;;;;;;;;;;;19.74;39.81;101089.78;5135289;27;19934;-68
2023/04/25 04:33:04;;;;;;;;;;;;;;;19.75;39.90;101093.31;5133965;27;19911;-68
2023/04/25 04:35:30;;;;;;;;;;;;;;;19.77;40.02;101100.22;5113719;27;19934;-68
2023/04/25 04:37:55;;;;;;;;;;;;;;;19.79;40.22;101106.28;5114088;27;19912;-68
2023/04/25 04:40:21;;;;;;;;;;;;;;;19.80;39.83;101110.69;5137344;27;19919;-68
2023/04/25 04:42:47;;;;;;;;;;;;;;;19.81;39.92;101109.69;5106741;28;19916;-68
2023/04/25 04:45:12;;;;;;;;;;;;;;;19.82;39.93;101113.22;5131999;27;20440;-69
2023/04/25 04:47:39;;;;;;;;;;;;;;;19.83;39.66;101117.59;5130556;27;19916;-69
2023/04/25 04:50:08;;;;;;;;;;;;;;;19.84;39.68;101116.59;5113479;27;19919;-68
2023/04/25 04:52:33;;;;;;;;;;;;;;;19.84;40.12;101119.28;5131971;27;20375;-70
2023/04/25 04:54:58;;;;;;;;;;;;;;;19.84;39.94;101128.22;5113096;27;19979;-68
2023/04/25 04:57:23;;;;;;;;;;;;;;;19.85;40.57;101123.66;5130829;27;19916;-68
2023/04/25 04:59:50;;;;;;;;;;;;;;;19.87;40.62;101130.56;5114869;28;19968;-68
2023/04/25 05:02:15;;;;;;;;;;;;;;;19.88;40.48;101134.97;5132454;27;19915;-69
2023/04/25 05:04:40;;;;;;;;;;;;;;;19.90;40.75;101138.34;5133217;27;19923;-68
2023/04/25 05:07:05;;;;;;;;;;;;;;;19.90;40.40;101138.34;5132026;27;19919;-68
2023/04/25 05:09:30;;;;;;;;;;;;;;;19.92;40.41;101130.06;5134933;27;19916;-68
2023/04/25 05:11:56;;;;;;;;;;;;;;;19.93;40.64;101142.56;5130579;27;19920;-68
2023/04/25 05:14:22;;;;;;;;;;;;;;;19.95;40.37;101149.44;5112341;27;19920;-68
2023/04/25 05:16:47;;;;;;;;;;;;;;;19.96;40.62;101147.59;5130514;27;20369;-69
2023/04/25 05:19:13;;;;;;;;;;;;;;;19.98;40.76;101153.69;5130006;27;19923;-68
2023/04/25 05:21:38;;;;;;;;;;;;;;;19.98;40.52;101159.09;5132172;27;20378;-69
2023/04/25 05:24:03;;;;;;;;;;;;;;;20.00;40.74;101161.59;5133719;27;19916;-68
2023/04/25 05:26:30;;;;;;;;;;;;;;;20.01;40.44;101174.06;5114480;27;19969;-67
2023/04/25 05:28:56;;;;;;;;;;;;;;;20.03;40.79;101172.91;5116308;27;19911;-68
2023/04/25 05:31:21;;;;;;;;;;;;;;;20.05;40.27;101170.91;5131957;27;19919;-67
2023/04/25 05:33:46;;;;;;;;;;;;;;;20.06;40.35;101174.44;5135019;27;19915;-69
2023/04/25 05:36:11;;;;;;;;;;;;;;;20.07;40.15;101173.41;5132041;27;19912;-69
2023/04/25 05:38:37;;;;;;;;;;;;;;;20.09;40.23;101182.16;5132209;27;20142;-69
2023/04/25 05:41:02;;;;;;;;;;;;;;;20.10;40.30;101184.72;5131279;27;19923;-69
2023/04/25 05:43:27;;;;;;;;;;;;;;;20.11;40.27;101186.41;5133401;27;19926;-69
2023/04/25 05:45:52;;;;;;;;;;;;;;;20.12;40.29;101185.38;5131846;27;19926;-68
2023/04/25 05:48:18;;;;;;;;;;;;;;;20.13;40.25;101189.75;5130180;27;19983;-68
2023/04/25 05:50:43;;;;;;;;;;;;;;;20.17;40.46;101193.81;5132964;27;19975;-68
2023/04/25 05:53:09;;;;;;;;;;;;;;;20.18;40.17;101194.66;5130992;27;19912;-68
2023/04/25 05:55:34;;;;;;;;;;;;;;;20.20;40.46;101195.34;5130132;27;20267;-68
2023/04/25 05:58:00;;;;;;;;;;;;;;;20.22;40.13;101196.03;5115060;27;19975;-68
2023/04/25 06:00:25;;;;;;;;;;;;;;;20.24;40.06;101193.97;5134773;27;19918;-68
2023/04/25 06:02:50;;;;;;;;;;;;;;;20.27;40.07;101203.59;5133782;27;19961;-68
2023/04/25 06:05:16;;;;;;;;;;;;;;;20.29;40.16;101206.97;5134352;27;20321;-68
2023/04/25 06:07:41;;;;;;;;;;;;;;;20.29;39.95;101199.69;5131517;27;20156;-69
2023/04/25 06:10:06;;;;;;;;;;;;;;;20.32;40.15;101202.06;5132324;27;20101;-69
2023/04/25 06:12:32;;;;;;;;;;;;;;;20.33;40.06;101198.34;5112550;28;19918;-70
2023/04/25 06:14:58;;;;;;;;;;;;;;;20.36;40.11;101202.56;5130685;27;19927;-69
2023/04/25 06:17:23;;;;;;;;;;;;;;;20.38;39.59;101211.34;5130386;27;19983;-68
2023/04/25 06:19:48;;;;;;;;;;;;;;;20.39;40.09;101213.00;5129620;27;19921;-69
2023/04/25 06:22:13;;;;;;;;;;;;;;;20.41;39.77;101217.25;5128205;28;19944;-68
2023/04/25 06:24:38;;;;;;;;;;;;;;;20.42;39.90;101216.22;5133822;27;20296;-69
2023/04/25 06:27:04;;;;;;;;;;;;;;;20.44;39.94;101214.22;5136446;28;19916;-67
2023/04/25 06:29:29;;;;;;;;;;;;;;;20.46;39.90;101220.28;5131106;28;19915;-68
2023/04/25 06:31:54;;;;;;;;;;;;;;;20.48;39.60;101220.16;5132599;28;19911;-68
2023/04/25 06:34:20;;;;;;;;;;;;;;;20.49;39.63;101224.53;5130704;28;19926;-68
2023/04/25 06:36:45;;;;;;;;;;;;;;;20.52;39.46;101226.03;5104775;28;19907;-68
2023/04/25 06:39:10;;;;;;;;;;;;;;;20.54;39.61;101229.41;5136829;28;19916;-68
2023/04/25 06:41:36;;;;;;;;;;;;;;;20.56;39.56;101230.94;5115113;28;19915;-66
2023/04/25 06:44:01;;;;;;;;;;;;;;;20.57;39.15;101235.31;5132031;27;19927;-67
2023/04/25 06:46:26;;;;;;;;;;;;;;;20.59;39.45;101237.84;5130072;28;19920;-68
2023/04/25 06:48:51;;;;;;;;;;;;;;;20.61;39.29;101235.81;5132272;27;19912;-67
2023/04/25 06:51:17;;;;;;;;;;;;;;;20.62;39.25;101232.09;5134684;27;19919;-68
2023/04/25 06:53:42;;;;;;;;;;;;;;;20.64;39.25;101240.88;5133368;27;19989;-68
2023/04/25 06:56:07;;;;;;;;;;;;;;;20.65;39.05;101240.72;5135511;27;20345;-68
2023/04/25 06:58:33;;;;;;;;;;;;;;;20.68;39.23;101242.22;5132139;27;19915;-68
2023/04/25 07:00:58;;;;;;;;;;;;;;;20.69;38.88;101242.06;5141337;27;20412;-67
2023/04/25 07:03:23;;;;;;;;;;;;;;;20.70;39.17;101242.91;5131847;27;19920;-67
2023/04/25 07:05:49;;;;;;;;;;;;;;;20.72;38.84;101248.97;5134235;27;19923;-68
2023/04/25 07:08:14;;;;;;;;;;;;;;;20.75;38.73;101254.03;5116332;27;19915;-68
2023/04/25 07:10:40;;;;;;;;;;;;;;;20.76;38.91;101249.47;5135534;27;19930;-68
2023/04/25 07:13:05;;;;;;;;;;;;;;;20.78;38.85;101250.97;5136327;27;19971;-68
2023/04/25 07:15:30;;;;;;;;;;;;;;;20.79;38.72;101260.78;5119194;27;19919;-68
2023/04/25 07:17:55;;;;;;;;;;;;;;;20.81;38.70;101264.13;5114993;28;19922;-67
2023/04/25 07:20:20;;;;;;;;;;;;;;;20.81;38.46;101258.72;5140153;27;20416;-72
2023/04/25 07:22:45;;;;;;;;;;;;;;;20.84;38.84;101252.16;5138210;27;19919;-69
2023/04/25 07:25:11;;;;;;;;;;;;;;;20.85;38.88;101253.81;5117344;27;20403;-68
2023/04/25 07:27:36;;;;;;;;;;;;;;;20.87;39.08;101262.63;5115335;28;19936;-68
2023/04/25 07:30:02;;;;;;;;;;;;;;;20.88;38.85;101270.53;5115863;27;20382;-68
2023/04/25 07:32:27;;;;;;;;;;;;;;;20.91;39.07;101280.19;5138373;27;19964;-69
2023/04/25 07:34:52;;;;;;;;;;;;;;;20.92;39.20;101271.88;5134216;27;19912;-70
2023/04/25 07:37:18;;;;;;;;;;;;;;;20.95;38.97;101279.66;5134138;27;19916;-69
2023/04/25 07:39:45;;;;;;;;;;;;;;;20.99;38.95;101284.72;5134600;27;19953;-73
2023/04/25 07:42:10;;;;;;;;;;;;;;;21.01;38.81;101283.50;5132741;27;19915;-69
2023/04/25 07:44:40;;;;;;;;;;;;;;;21.02;38.83;101290.59;5132027;27;19926;-69
2023/04/25 07:47:08;;;;;;;;;;;;;;;21.04;38.59;101287.75;5136188;27;20018;-69
2023/04/25 07:49:35;;;;;;;;;;;;;;;21.04;38.85;101296.69;5137324;27;19919;-70
2023/04/25 07:52:00;;;;;;;;;;;;;;;21.05;38.67;101320.00;5099445;27;19908;-70
2023/04/25 07:54:25;;;;;;;;;;;;;;;21.05;38.48;101330.81;5131280;27;19954;-71
2023/04/25 07:56:51;;;;;;;;;;;;;;;21.06;38.25;101347.88;5117604;27;19979;-71
2023/04/25 07:59:16;;;;;;;;;;;;;;;21.06;38.65;101356.81;5117181;27;19957;-70
2023/04/25 08:01:41;;;;;;;;;;;;;;;21.07;38.27;101338.75;5133599;27;20413;-70
2023/04/25 08:04:06;;;;;;;;;;;;;;;21.08;38.22;101335.03;5135523;27;19920;-70
2023/04/25 08:06:32;;;;;;;;;;;;;;;21.06;38.18;101321.69;5135569;27;19911;-68
2023/04/25 08:08:57;;;;;;;;;;;;;;;21.10;38.40;101333.00;5132184;27;19916;-69
2023/04/25 08:11:22;;;;;;;;;;;;;;;21.10;38.45;101335.69;5127764;27;19911;-69
2023/04/25 08:13:47;;;;;;;;;;;;;;;21.11;38.52;101338.25;5135502;27;19923;-69
2023/04/25 08:16:12;;;;;;;;;;;;;;;21.13;38.13;101335.38;5137340;27;20451;-69
2023/04/25 08:18:37;;;;;;;;;;;;;;;21.14;38.39;101342.44;5112543;28;19934;-69
2023/04/25 08:21:03;;;;;;;;;;;;;;;21.15;38.11;101333.31;5132801;27;19916;-68
2023/04/25 08:23:28;;;;;;;;;;;;;;;21.15;38.31;101339.59;5136436;27;19920;-69
2023/04/25 08:25:53;;;;;;;;;;;;;;;21.17;37.82;101337.53;5121195;28;19951;-69
2023/04/25 08:28:18;;;;;;;;;;;;;;;21.19;37.91;101337.38;5140487;27;19911;-69
2023/04/25 08:30:43;;;;;;;;;;;;;;;21.18;37.94;101335.69;5131768;27;19938;-68
2023/04/25 08:33:10;;;;;;;;;;;;;;;21.20;38.14;101341.78;5136377;27;19919;-68
2023/04/25 08:35:35;;;;;;;;;;;;;;;21.20;38.11;101337.22;5119336;27;19926;-69
2023/04/25 08:38:01;;;;;;;;;;;;;;;21.21;38.10;101338.88;5131908;27;19912;-68
2023/04/25 08:40:28;;;;;;;;;;;;;;;21.23;37.95;101341.41;5110227;27;19943;-69
2023/04/25 08:42:54;;;;;;;;;;;;;;;21.24;37.96;101343.13;5117761;27;19923;-69
2023/04/25 08:45:19;;;;;;;;;;;;;;;21.25;37.78;101350.22;5131528;27;19933;-69
2023/04/25 08:47:45;;;;;;;;;;;;;;;21.26;37.97;101346.47;5127761;27;19927;-69
2023/04/25 08:50:10;;;;;;;;;;;;;;;21.28;37.87;101351.69;5122796;27;20363;-69
2023/04/25 08:52:37;;;;;;;;;;;;;;;21.29;37.76;101356.13;5130230;27;19922;-69
2023/04/25 08:55:03;;;;;;;;;;;;;;;21.30;37.87;101355.94;5125464;27;19951;-74
2023/04/25 08:57:28;;;;;;;;;;;;;;;21.31;37.62;101354.06;5117218;27;19922;-69
2023/04/25 08:59:53;;;;;;;;;;;;;;;21.34;37.77;101367.28;5113115;27;19912;-68
2023/04/25 09:02:20;;;;;;;;;;;;;;;21.35;37.59;101369.81;5117289;27;19924;-68
2023/04/25 09:04:45;;;;;;;;;;;;;;;21.37;37.72;101369.66;5133425;27;19923;-68
2023/04/25 09:07:11;;;;;;;;;;;;;;;21.38;37.96;101391.13;5122882;27;19922;-68
2023/04/25 09:09:36;;;;;;;;;;;;;;;21.38;37.17;101407.34;5129539;27;19916;-68
2023/04/25 09:12:01;;;;;;;;;;;;;;;21.38;37.54;101423.56;5131540;27;19915;-68
2023/04/25 09:14:27;;;;;;;;;;;;;;;21.37;37.41;101427.28;5132198;27;19923;-70
2023/04/25 09:16:56;;;;;;;;;;;;;;;21.37;37.42;101411.06;5114901;27;19915;-70
2023/04/25 09:19:25;;;;;;;;;;;;;;;21.38;37.94;101414.63;5130639;27;19912;-69
2023/04/25 09:21:51;;;;;;;;;;;;;;;21.37;37.91;101413.78;5135536;27;19951;-69
2023/04/25 09:24:16;;;;;;;;;;;;;;;21.39;37.88;101416.28;5114874;27;19916;-69
2023/04/25 09:26:41;;;;;;;;;;;;;;;21.40;37.89;101413.41;5111893;28;19916;-69
2023/04/25 09:29:07;;;;;;;;;;;;;;;21.41;37.74;101414.28;5133271;27;19919;-69
2023/04/25 09:31:32;;;;;;;;;;;;;;;21.41;37.74;101417.81;5125438;27;19946;-70
2023/04/25 09:34:00;;;;;;;;;;;;;;;21.41;37.62;101422.41;5130482;27;19923;-69
2023/04/25 09:36:26;;;;;;;;;;;;;;;21.43;37.61;101421.19;5130126;27;19911;-68
2023/04/25 09:38:51;;;;;;;;;;;;;;;21.45;37.74;101413.75;5128284;27;19969;-71
2023/04/25 09:41:21;;;;;;;;;;;;;;;21.48;37.67;101417.97;5129006;27;19915;-71
2023/04/25 09:43:47;;;;;;;;;;;;;;;21.49;37.49;101413.38;5111761;27;19941;-70
2023/04/25 09:46:12;;;;;;;;;;;;;;;21.50;37.64;101412.41;5113384;28;19915;-71
2023/04/25 09:48:37;;;;;;;;;;;;;;;21.53;37.83;101412.03;5114826;27;19923;-68
2023/04/25 09:51:03;;;;;;;;;;;;;;;21.55;37.63;101418.97;5115150;27;19922;-69
2023/04/25 09:53:28;;;;;;;;;;;;;;;21.56;37.88;101406.28;5134810;27;19916;-69
2023/04/25 09:55:53;;;;;;;;;;;;;;;21.59;37.63;101406.78;5115692;27;19922;-69
2023/04/25 09:58:18;;;;;;;;;;;;;;;21.61;37.80;101409.28;5130546;27;20355;-68
2023/04/25 10:00:44;;;;;;;;;;;;;;;21.62;37.75;101409.13;5111087;27;19983;-68
2023/04/25 10:03:09;;;;;;;;;;;;;;;21.66;38.07;101412.31;5128625;27;19920;-70
2023/04/25 10:05:35;;;;;;;;;;;;;;;21.68;37.79;101410.28;5111015;28;19923;-68
2023/04/25 10:08:02;;;;;;;;;;;;;;;21.71;38.22;101416.22;5129540;27;19954;-68
2023/04/25 10:10:27;;;;;;;;;;;;;;;21.74;38.24;101415.00;5131099;27;19912;-68
2023/04/25 10:12:53;;;;;;;;;;;;;;;21.79;37.80;101423.47;5132625;27;19926;-68
2023/04/25 10:15:18;;;;;;;;;;;;;;;21.83;37.80;101423.94;5113361;28;19916;-68
2023/04/25 10:17:43;;;;;;;;;;;;;;;21.86;38.11;101435.25;5112416;27;19920;-68
2023/04/25 10:20:10;;;;;;;;;;;;;;;21.89;37.79;101428.66;5116141;27;19911;-68
2023/04/25 10:22:36;;;;;;;;;;;;;;;21.91;37.78;101435.56;5111901;28;20269;-68
2023/04/25 10:25:03;;;;;;;;;;;;;;;21.94;38.06;101437.09;5111474;27;19930;-68
2023/04/25 10:27:28;;;;;;;;;;;;;;;21.99;38.13;101436.56;5100461;28;20276;-68
2023/04/25 10:30:23;;;;;;;;;;;;;;;22.02;37.87;101447.03;5132667;28;19951;-69
2023/04/25 10:32:50;;;;;;;;;;;;;;;22.08;37.66;101441.75;5111320;28;19924;-68
2023/04/25 10:35:19;;;;;;;;;;;;;;;22.14;37.79;101445.66;5130954;28;19958;-70
2023/04/25 10:37:56;;;;;;;;;;;;;;;22.19;37.73;101435.13;5110331;28;19922;-70
2023/04/25 10:40:21;;;;;;;;;;;;;;;22.23;37.71;101447.31;5110818;28;19922;-71
2023/04/25 10:42:47;;;;;;;;;;;;;;;22.27;37.62;101448.63;5130382;28;20364;-68
2023/04/25 10:45:12;;;;;;;;;;;;;;;22.30;37.73;101453.72;5132059;28;19930;-68
2023/04/25 10:47:43;;;;;;;;;;;;;;;22.34;37.58;101451.47;5129303;28;19920;-68
2023/04/25 10:50:08;;;;;;;;;;;;;;;22.38;37.76;101456.34;5115218;28;19923;-68
2023/04/25 10:52:33;;;;;;;;;;;;;;;22.39;37.40;101454.50;5113116;28;20002;-67
2023/04/25 10:54:59;;;;;;;;;;;;;;;22.37;37.62;101453.81;5131235;28;19943;-68
2023/04/25 10:57:31;;;;;;;;;;;;;;;22.37;37.58;101449.25;5116827;28;19911;-68
2023/04/25 11:00:05;;;;;;;;;;;;;;;22.34;37.53;101446.03;5111483;28;19918;-69
2023/04/25 11:02:31;;;;;;;;;;;;;;;22.37;37.63;101453.81;5133089;28;19920;-67
2023/04/25 11:04:56;;;;;;;;;;;;;;;22.40;37.86;101456.19;5128521;28;20455;-67
2023/04/25 11:07:22;;;;;;;;;;;;;;;22.40;37.69;101446.19;5133205;28;20476;-69
2023/04/25 11:09:47;;;;;;;;;;;;;;;22.42;37.83;101448.72;5130089;28;19922;-69
2023/04/25 11:12:13;;;;;;;;;;;;;;;22.42;37.89;101454.97;5114949;28;19947;-71
2023/04/25 11:14:39;;;;;;;;;;;;;;;22.46;37.72;101445.47;5116367;28;19979;-68
2023/04/25 11:17:05;;;;;;;;;;;;;;;22.47;37.55;101449.00;5121553;28;19912;-70
2023/04/25 11:19:30;;;;;;;;;;;;;;;22.39;37.70;101466.19;5131088;28;19916;-69
2023/04/25 11:21:56;;;;;;;;;;;;;;;22.37;37.93;101465.50;5128409;28;19915;-69
2023/04/25 11:24:28;;;;;;;;;;;;;;;22.38;38.08;101458.22;5134685;28;20554;-69
2023/04/25 11:26:53;;;;;;;;;;;;;;;22.37;37.76;101454.66;5113615;28;19911;-69
2023/04/25 11:29:18;;;;;;;;;;;;;;;22.40;37.76;101475.16;5109983;28;19922;-69
2023/04/25 11:31:46;;;;;;;;;;;;;;;22.39;37.63;101479.72;5128183;28;19924;-69
2023/04/25 11:34:11;;;;;;;;;;;;;;;22.40;37.71;101483.28;5132543;28;20372;-67
2023/04/25 11:36:37;;;;;;;;;;;;;;;22.39;37.83;101478.88;5131845;27;19950;-67
2023/04/25 11:39:02;;;;;;;;;;;;;;;22.39;37.89;101479.72;5126478;27;19919;-69
2023/04/25 11:41:27;;;;;;;;;;;;;;;22.42;37.59;101486.63;5115522;27;19915;-69
2023/04/25 11:43:54;;;;;;;;;;;;;;;22.42;37.56;101483.94;5134303;27;19930;-69
2023/04/25 11:46:20;;;;;;;;;;;;;;;22.42;37.52;101486.63;5125684;27;19954;-70
2023/04/25 11:48:45;;;;;;;;;;;;;;;22.37;37.72;101489.03;5118147;27;20027;-68
2023/04/25 11:51:10;;;;;;;;;;;;;;;22.32;38.06;101480.59;5139645;27;19916;-69
2023/04/25 11:53:36;;;;;;;;;;;;;;;22.29;37.88;101484.50;5114414;27;19919;-69
2023/04/25 11:56:01;;;;;;;;;;;;;;;22.24;37.88;101481.50;5132965;27;19924;-69
2023/04/25 11:58:26;;;;;;;;;;;;;;;22.19;38.29;101486.59;5137371;27;19931;-69
2023/04/25 12:00:51;;;;;;;;;;;;;;;22.20;38.36;101493.69;5136758;27;19915;-69
2023/04/25 12:03:17;;;;;;;;;;;;;;;22.17;38.36;101481.38;5117952;27;19919;-70
2023/04/25 12:05:42;;;;;;;;;;;;;;;22.15;38.46;101477.13;5134226;27;19920;-70
2023/04/25 12:08:14;;;;;;;;;;;;;;;22.13;38.16;101493.56;5115232;28;19911;-69
2023/04/25 12:10:40;;;;;;;;;;;;;;;22.10;38.49;101493.88;5135265;27;20408;-69
2023/04/25 12:13:18;;;;;;;;;;;;;;;22.09;38.56;101491.34;5138714;27;19927;-69
2023/04/25 12:15:43;;;;;;;;;;;;;;;22.09;38.56;101494.03;5114512;27;19927;-69
2023/04/25 12:18:08;;;;;;;;;;;;;;;22.07;38.56;101499.66;5137781;27;19912;-69
2023/04/25 12:20:34;;;;;;;;;;;;;;;22.11;38.80;101500.97;5112679;28;19922;-69
2023/04/25 12:23:00;;;;;;;;;;;;;;;22.11;38.73;101494.72;5112300;28;19976;-70
2023/04/25 12:25:38;;;;;;;;;;;;;;;22.08;38.75;101504.03;5133572;27;20581;-69
2023/04/25 12:28:19;;;;;;;;;;;;;;;22.07;38.95;101507.75;5135221;27;19923;-70